Lake Worth, FL

4:24 PM EST on November 26, 2014 (GMT -0500)
TWO GEMS Wind & Weather | Change Station
CLOSE
Current Station
Personal Weather Station
Location: Lake Worth, FL
Elevation: 14 ft
Nearby Weather Stations

Elev 14 ft 26.59 °N, 80.11 °W | Updated 47 seconds ago

Mostly Cloudy
Mostly Cloudy
62.9 °F
Feels Like 62.9 °F
N
0.0
Wind Variable Wind from NE
Gusts 0.0 mph

Today
High -- | Low -- °F
--% Chance of Precip.
Yesterday
High -- | Low -- °F
Precip. -- in
6:47 AM 5:27 PM
Waxing Crescent, 22% visible
Pressure 30.09 in
Visibility 10.0 miles
Clouds Scattered Clouds 2000 ft
Mostly Cloudy 10000 ft
Mostly Cloudy 23000 ft
Dew Point 57 °F
Humidity 80%
Rainfall 0.14 in
Snow Depth Not available.
UV 1 out of 12
Pollen 1.00 out of 12
Air Quality Not available.
Flu Activity Not available.
METAR KPBI 262053Z 33014KT 10SM SCT020 BKN100 BKN230 18/13 A3009 RMK AO2 SLP190 T01830128 53010

More Conditions Fewer Conditions

Pressure 30.09 in
Visibility 10.0 miles
Clouds Scattered Clouds 2000 ft
Mostly Cloudy 10000 ft
Mostly Cloudy 23000 ft
Dew Point 57 °F
Humidity 80%
Rainfall 0.14 in
Snow Depth Not available.
UV 1 out of 12
Pollen 1.00 out of 12
Air Quality Not available.
Flu Activity Not available.
METAR KPBI 262053Z 33014KT 10SM SCT020 BKN100 BKN230 18/13 A3009 RMK AO2 SLP190 T01830128 53010

More Conditions Fewer Conditions

10-Day Weather Forecast

Almanac

Astronomy

Nov. 26, 2014 Rise Set
Actual Time
Civil Twilight
Nautical Twilight
Astronomical Twilight
Moon
Length of Visible Light
Length of Day
Tomorrow will be .
, % of the Moon is Illuminated

Today's Extremes

State Highs State Lows

Community

WunderPhotos

Upload Photos

1,773,872 photos uploaded!

WunderBlogs® & News

Nearby

Air Quality

  Air Quality AQ Index Pollutant
Not available.

Snow Depth

Station Depth Elevation

Earthquake Activity

City Distance Mag. Time & Date
Minimum magnitude displayed is 2.5.

Coastal Water Temperatures

Place Temperature

Nearby Weather Stations